sensor_id;sensor_type;location;lat;lon;timestamp;P1;durP1;ratioP1;P2;durP2;ratioP2
7406;SDS011;3745;56.964;24.128;2024-01-16T00:01:06;14.43;;;7.10;;
7406;SDS011;3745;56.964;24.128;2024-01-16T00:03:32;16.93;;;7.87;;
7406;SDS011;3745;56.964;24.128;2024-01-16T00:06:00;16.97;;;7.57;;
7406;SDS011;3745;56.964;24.128;2024-01-16T00:08:30;15.10;;;6.90;;
7406;SDS011;3745;56.964;24.128;2024-01-16T00:10:55;14.23;;;6.77;;
7406;SDS011;3745;56.964;24.128;2024-01-16T00:13:21;16.37;;;6.90;;
7406;SDS011;3745;56.964;24.128;2024-01-16T00:15:46;22.73;;;7.17;;
7406;SDS011;3745;56.964;24.128;2024-01-16T00:18:12;18.13;;;7.23;;
7406;SDS011;3745;56.964;24.128;2024-01-16T00:20:38;13.33;;;7.37;;
7406;SDS011;3745;56.964;24.128;2024-01-16T00:23:04;18.57;;;7.63;;
7406;SDS011;3745;56.964;24.128;2024-01-16T00:25:29;17.47;;;7.63;;
7406;SDS011;3745;56.964;24.128;2024-01-16T00:27:55;18.40;;;7.77;;
7406;SDS011;3745;56.964;24.128;2024-01-16T00:30:21;15.00;;;7.23;;
7406;SDS011;3745;56.964;24.128;2024-01-16T00:32:46;14.70;;;6.43;;
7406;SDS011;3745;56.964;24.128;2024-01-16T00:35:12;17.13;;;6.90;;
7406;SDS011;3745;56.964;24.128;2024-01-16T00:37:38;15.63;;;8.10;;
7406;SDS011;3745;56.964;24.128;2024-01-16T00:40:04;10.73;;;6.80;;
7406;SDS011;3745;56.964;24.128;2024-01-16T00:42:33;19.80;;;7.07;;
7406;SDS011;3745;56.964;24.128;2024-01-16T00:44:59;13.50;;;7.10;;
7406;SDS011;3745;56.964;24.128;2024-01-16T00:47:25;15.63;;;7.57;;
7406;SDS011;3745;56.964;24.128;2024-01-16T00:49:51;14.73;;;7.00;;
7406;SDS011;3745;56.964;24.128;2024-01-16T00:52:16;18.07;;;8.27;;
7406;SDS011;3745;56.964;24.128;2024-01-16T00:54:42;16.60;;;7.70;;
7406;SDS011;3745;56.964;24.128;2024-01-16T00:57:08;15.53;;;8.00;;
7406;SDS011;3745;56.964;24.128;2024-01-16T00:59:34;17.87;;;8.40;;
7406;SDS011;3745;56.964;24.128;2024-01-16T01:02:01;16.90;;;8.47;;
7406;SDS011;3745;56.964;24.128;2024-01-16T01:04:28;29.83;;;12.90;;
7406;SDS011;3745;56.964;24.128;2024-01-16T01:06:55;30.87;;;13.27;;
7406;SDS011;3745;56.964;24.128;2024-01-16T01:09:21;26.63;;;11.30;;
7406;SDS011;3745;56.964;24.128;2024-01-16T01:11:46;24.77;;;11.47;;
7406;SDS011;3745;56.964;24.128;2024-01-16T01:14:12;24.40;;;10.87;;
7406;SDS011;3745;56.964;24.128;2024-01-16T01:16:38;23.67;;;10.60;;
7406;SDS011;3745;56.964;24.128;2024-01-16T01:19:03;28.60;;;9.97;;
7406;SDS011;3745;56.964;24.128;2024-01-16T01:21:29;29.27;;;12.00;;
7406;SDS011;3745;56.964;24.128;2024-01-16T01:23:55;25.30;;;11.40;;
7406;SDS011;3745;56.964;24.128;2024-01-16T01:26:21;27.20;;;10.47;;
7406;SDS011;3745;56.964;24.128;2024-01-16T01:28:47;17.70;;;8.80;;
7406;SDS011;3745;56.964;24.128;2024-01-16T01:31:12;29.83;;;8.83;;
7406;SDS011;3745;56.964;24.128;2024-01-16T01:33:41;23.00;;;9.17;;
7406;SDS011;3745;56.964;24.128;2024-01-16T01:36:07;22.17;;;10.20;;
7406;SDS011;3745;56.964;24.128;2024-01-16T01:38:33;24.53;;;10.80;;
7406;SDS011;3745;56.964;24.128;2024-01-16T01:40:58;29.27;;;10.37;;
7406;SDS011;3745;56.964;24.128;2024-01-16T01:43:24;20.00;;;9.67;;
7406;SDS011;3745;56.964;24.128;2024-01-16T01:48:28;21.77;;;9.20;;
7406;SDS011;3745;56.964;24.128;2024-01-16T01:50:53;30.30;;;10.97;;
7406;SDS011;3745;56.964;24.128;2024-01-16T01:53:19;28.23;;;11.30;;
7406;SDS011;3745;56.964;24.128;2024-01-16T01:55:44;29.87;;;11.23;;
7406;SDS011;3745;56.964;24.128;2024-01-16T01:58:11;16.30;;;7.17;;
7406;SDS011;3745;56.964;24.128;2024-01-16T02:00:37;17.23;;;6.60;;
7406;SDS011;3745;56.964;24.128;2024-01-16T02:03:02;19.43;;;10.37;;
7406;SDS011;3745;56.964;24.128;2024-01-16T02:05:28;22.30;;;11.07;;
7406;SDS011;3745;56.964;24.128;2024-01-16T02:07:55;12.17;;;6.10;;
7406;SDS011;3745;56.964;24.128;2024-01-16T02:10:22;12.77;;;6.33;;
7406;SDS011;3745;56.964;24.128;2024-01-16T02:12:47;7.80;;;3.83;;
7406;SDS011;3745;56.964;24.128;2024-01-16T02:15:13;15.13;;;7.27;;
7406;SDS011;3745;56.964;24.128;2024-01-16T02:17:39;16.27;;;6.20;;
7406;SDS011;3745;56.964;24.128;2024-01-16T02:20:05;13.47;;;7.53;;
7406;SDS011;3745;56.964;24.128;2024-01-16T02:22:32;15.33;;;7.13;;
7406;SDS011;3745;56.964;24.128;2024-01-16T02:25:00;13.33;;;6.53;;
7406;SDS011;3745;56.964;24.128;2024-01-16T02:27:26;14.53;;;5.80;;
7406;SDS011;3745;56.964;24.128;2024-01-16T02:29:52;16.00;;;6.73;;
7406;SDS011;3745;56.964;24.128;2024-01-16T02:32:17;13.23;;;6.80;;
7406;SDS011;3745;56.964;24.128;2024-01-16T02:34:43;10.17;;;4.97;;
7406;SDS011;3745;56.964;24.128;2024-01-16T02:37:08;10.77;;;6.43;;
7406;SDS011;3745;56.964;24.128;2024-01-16T02:39:34;3.93;;;2.53;;
7406;SDS011;3745;56.964;24.128;2024-01-16T02:41:59;8.53;;;5.03;;
7406;SDS011;3745;56.964;24.128;2024-01-16T02:44:25;10.17;;;5.60;;
7406;SDS011;3745;56.964;24.128;2024-01-16T02:46:51;12.53;;;5.13;;
7406;SDS011;3745;56.964;24.128;2024-01-16T02:49:17;8.77;;;5.27;;
7406;SDS011;3745;56.964;24.128;2024-01-16T02:51:42;15.90;;;5.63;;
7406;SDS011;3745;56.964;24.128;2024-01-16T02:54:08;9.80;;;3.93;;
7406;SDS011;3745;56.964;24.128;2024-01-16T02:56:34;4.23;;;3.30;;
7406;SDS011;3745;56.964;24.128;2024-01-16T02:59:00;2.33;;;1.33;;
7406;SDS011;3745;56.964;24.128;2024-01-16T03:01:25;11.13;;;4.60;;
7406;SDS011;3745;56.964;24.128;2024-01-16T03:03:51;10.67;;;2.83;;
7406;SDS011;3745;56.964;24.128;2024-01-16T03:06:23;9.00;;;3.20;;
7406;SDS011;3745;56.964;24.128;2024-01-16T03:08:50;2.17;;;1.93;;
7406;SDS011;3745;56.964;24.128;2024-01-16T03:11:16;5.60;;;3.70;;
7406;SDS011;3745;56.964;24.128;2024-01-16T03:13:43;2.57;;;2.37;;
7406;SDS011;3745;56.964;24.128;2024-01-16T03:16:12;5.50;;;2.57;;
7406;SDS011;3745;56.964;24.128;2024-01-16T03:18:38;4.20;;;2.30;;
7406;SDS011;3745;56.964;24.128;2024-01-16T03:21:06;0.60;;;0.47;;
7406;SDS011;3745;56.964;24.128;2024-01-16T03:23:32;7.70;;;3.23;;
7406;SDS011;3745;56.964;24.128;2024-01-16T03:25:58;4.63;;;3.20;;
7406;SDS011;3745;56.964;24.128;2024-01-16T03:28:24;1.57;;;0.77;;
7406;SDS011;3745;56.964;24.128;2024-01-16T03:30:50;1.33;;;1.23;;
7406;SDS011;3745;56.964;24.128;2024-01-16T03:33:15;1.13;;;0.30;;
7406;SDS011;3745;56.964;24.128;2024-01-16T03:35:41;3.23;;;2.23;;
7406;SDS011;3745;56.964;24.128;2024-01-16T03:38:06;4.60;;;2.03;;
7406;SDS011;3745;56.964;24.128;2024-01-16T03:40:32;4.23;;;1.20;;
7406;SDS011;3745;56.964;24.128;2024-01-16T03:43:02;4.63;;;2.77;;
7406;SDS011;3745;56.964;24.128;2024-01-16T03:45:30;3.37;;;2.90;;
7406;SDS011;3745;56.964;24.128;2024-01-16T03:47:55;0.67;;;0.60;;
7406;SDS011;3745;56.964;24.128;2024-01-16T03:50:21;3.13;;;2.40;;
7406;SDS011;3745;56.964;24.128;2024-01-16T03:52:46;4.63;;;3.80;;
7406;SDS011;3745;56.964;24.128;2024-01-16T03:55:12;2.53;;;1.80;;
7406;SDS011;3745;56.964;24.128;2024-01-16T03:57:38;3.30;;;1.33;;
7406;SDS011;3745;56.964;24.128;2024-01-16T04:00:03;3.60;;;1.90;;
7406;SDS011;3745;56.964;24.128;2024-01-16T04:02:30;1.90;;;1.80;;
7406;SDS011;3745;56.964;24.128;2024-01-16T04:04:57;4.93;;;1.80;;
7406;SDS011;3745;56.964;24.128;2024-01-16T04:07:22;1.80;;;1.17;;
7406;SDS011;3745;56.964;24.128;2024-01-16T04:09:49;3.80;;;2.00;;
7406;SDS011;3745;56.964;24.128;2024-01-16T04:12:14;3.20;;;1.70;;
7406;SDS011;3745;56.964;24.128;2024-01-16T04:14:40;9.63;;;3.03;;
7406;SDS011;3745;56.964;24.128;2024-01-16T04:17:05;1.37;;;1.27;;
7406;SDS011;3745;56.964;24.128;2024-01-16T04:19:31;3.60;;;0.80;;
7406;SDS011;3745;56.964;24.128;2024-01-16T04:21:59;1.50;;;1.00;;
7406;SDS011;3745;56.964;24.128;2024-01-16T04:24:26;1.50;;;1.40;;
7406;SDS011;3745;56.964;24.128;2024-01-16T04:26:51;3.03;;;1.90;;
7406;SDS011;3745;56.964;24.128;2024-01-16T04:29:17;2.77;;;2.10;;
7406;SDS011;3745;56.964;24.128;2024-01-16T04:31:42;7.53;;;4.40;;
7406;SDS011;3745;56.964;24.128;2024-01-16T04:34:08;6.77;;;3.20;;
7406;SDS011;3745;56.964;24.128;2024-01-16T04:36:34;0.00;;;0.00;;
7406;SDS011;3745;56.964;24.128;2024-01-16T04:38:59;0.30;;;0.30;;
7406;SDS011;3745;56.964;24.128;2024-01-16T04:41:25;6.33;;;2.23;;
7406;SDS011;3745;56.964;24.128;2024-01-16T04:43:50;2.53;;;1.50;;
7406;SDS011;3745;56.964;24.128;2024-01-16T04:46:16;2.43;;;0.93;;
7406;SDS011;3745;56.964;24.128;2024-01-16T04:48:42;3.33;;;1.20;;
7406;SDS011;3745;56.964;24.128;2024-01-16T04:51:08;0.00;;;0.00;;
7406;SDS011;3745;56.964;24.128;2024-01-16T04:53:34;0.77;;;0.70;;
7406;SDS011;3745;56.964;24.128;2024-01-16T04:55:59;0.20;;;0.20;;
7406;SDS011;3745;56.964;24.128;2024-01-16T04:58:25;0.33;;;0.33;;
7406;SDS011;3745;56.964;24.128;2024-01-16T05:00:51;7.00;;;3.23;;
7406;SDS011;3745;56.964;24.128;2024-01-16T05:03:16;3.03;;;1.33;;
7406;SDS011;3745;56.964;24.128;2024-01-16T05:05:42;1.40;;;1.27;;
7406;SDS011;3745;56.964;24.128;2024-01-16T05:08:08;0.63;;;0.43;;
7406;SDS011;3745;56.964;24.128;2024-01-16T05:10:36;0.40;;;0.40;;
7406;SDS011;3745;56.964;24.128;2024-01-16T05:13:01;0.00;;;0.00;;
7406;SDS011;3745;56.964;24.128;2024-01-16T05:15:27;1.80;;;1.73;;
7406;SDS011;3745;56.964;24.128;2024-01-16T05:17:52;0.63;;;0.63;;
7406;SDS011;3745;56.964;24.128;2024-01-16T05:20:20;9.33;;;1.07;;
7406;SDS011;3745;56.964;24.128;2024-01-16T05:22:46;1.50;;;1.50;;
7406;SDS011;3745;56.964;24.128;2024-01-16T05:25:12;0.00;;;0.00;;
7406;SDS011;3745;56.964;24.128;2024-01-16T05:27:38;0.00;;;0.00;;
7406;SDS011;3745;56.964;24.128;2024-01-16T05:30:03;0.50;;;0.50;;
7406;SDS011;3745;56.964;24.128;2024-01-16T05:32:29;0.80;;;0.80;;
7406;SDS011;3745;56.964;24.128;2024-01-16T05:34:55;2.03;;;1.10;;
7406;SDS011;3745;56.964;24.128;2024-01-16T05:37:20;2.93;;;2.63;;
7406;SDS011;3745;56.964;24.128;2024-01-16T05:39:46;0.20;;;0.20;;
7406;SDS011;3745;56.964;24.128;2024-01-16T05:42:11;0.00;;;0.00;;
7406;SDS011;3745;56.964;24.128;2024-01-16T05:44:37;0.27;;;0.27;;
7406;SDS011;3745;56.964;24.128;2024-01-16T05:47:04;0.00;;;0.00;;
7406;SDS011;3745;56.964;24.128;2024-01-16T05:49:29;0.00;;;0.00;;
7406;SDS011;3745;56.964;24.128;2024-01-16T05:51:55;1.80;;;0.97;;
7406;SDS011;3745;56.964;24.128;2024-01-16T05:54:21;5.50;;;4.23;;
7406;SDS011;3745;56.964;24.128;2024-01-16T05:56:46;4.40;;;0.40;;
7406;SDS011;3745;56.964;24.128;2024-01-16T05:59:12;0.90;;;0.87;;
7406;SDS011;3745;56.964;24.128;2024-01-16T06:01:37;0.17;;;0.17;;
7406;SDS011;3745;56.964;24.128;2024-01-16T06:04:03;1.40;;;0.83;;
7406;SDS011;3745;56.964;24.128;2024-01-16T06:06:29;0.00;;;0.00;;
7406;SDS011;3745;56.964;24.128;2024-01-16T06:08:54;0.47;;;0.43;;
7406;SDS011;3745;56.964;24.128;2024-01-16T06:11:33;0.30;;;0.30;;
7406;SDS011;3745;56.964;24.128;2024-01-16T06:14:00;0.70;;;0.70;;
7406;SDS011;3745;56.964;24.128;2024-01-16T06:16:25;1.93;;;1.73;;
7406;SDS011;3745;56.964;24.128;2024-01-16T06:18:51;0.00;;;0.00;;
7406;SDS011;3745;56.964;24.128;2024-01-16T06:21:17;1.30;;;1.20;;
7406;SDS011;3745;56.964;24.128;2024-01-16T06:23:43;0.20;;;0.20;;
7406;SDS011;3745;56.964;24.128;2024-01-16T06:26:08;0.67;;;0.67;;
7406;SDS011;3745;56.964;24.128;2024-01-16T06:28:35;1.37;;;0.20;;
7406;SDS011;3745;56.964;24.128;2024-01-16T06:31:02;0.30;;;0.30;;
7406;SDS011;3745;56.964;24.128;2024-01-16T06:33:27;0.10;;;0.10;;
7406;SDS011;3745;56.964;24.128;2024-01-16T06:35:56;0.77;;;0.77;;
7406;SDS011;3745;56.964;24.128;2024-01-16T06:38:22;2.50;;;0.90;;
7406;SDS011;3745;56.964;24.128;2024-01-16T06:40:47;1.23;;;0.33;;
7406;SDS011;3745;56.964;24.128;2024-01-16T06:43:14;1.17;;;1.07;;
7406;SDS011;3745;56.964;24.128;2024-01-16T06:45:43;0.43;;;0.43;;
7406;SDS011;3745;56.964;24.128;2024-01-16T06:48:09;3.40;;;1.80;;
7406;SDS011;3745;56.964;24.128;2024-01-16T06:50:35;0.93;;;0.93;;
7406;SDS011;3745;56.964;24.128;2024-01-16T06:53:01;1.00;;;0.70;;
7406;SDS011;3745;56.964;24.128;2024-01-16T06:55:27;1.10;;;0.97;;
7406;SDS011;3745;56.964;24.128;2024-01-16T06:57:52;0.40;;;0.40;;
7406;SDS011;3745;56.964;24.128;2024-01-16T07:00:19;0.33;;;0.33;;
7406;SDS011;3745;56.964;24.128;2024-01-16T07:02:46;3.30;;;1.57;;
7406;SDS011;3745;56.964;24.128;2024-01-16T07:05:11;0.10;;;0.10;;
7406;SDS011;3745;56.964;24.128;2024-01-16T07:07:37;0.03;;;0.03;;
7406;SDS011;3745;56.964;24.128;2024-01-16T07:10:03;0.00;;;0.00;;
7406;SDS011;3745;56.964;24.128;2024-01-16T07:12:33;4.37;;;0.70;;
7406;SDS011;3745;56.964;24.128;2024-01-16T07:14:59;0.00;;;0.00;;
7406;SDS011;3745;56.964;24.128;2024-01-16T07:17:25;3.73;;;1.40;;
7406;SDS011;3745;56.964;24.128;2024-01-16T07:19:51;0.00;;;0.00;;
7406;SDS011;3745;56.964;24.128;2024-01-16T07:22:16;0.00;;;0.00;;
7406;SDS011;3745;56.964;24.128;2024-01-16T07:24:42;0.03;;;0.03;;
7406;SDS011;3745;56.964;24.128;2024-01-16T07:27:08;1.07;;;0.40;;
7406;SDS011;3745;56.964;24.128;2024-01-16T07:29:33;0.20;;;0.10;;
7406;SDS011;3745;56.964;24.128;2024-01-16T07:31:59;1.97;;;1.87;;
7406;SDS011;3745;56.964;24.128;2024-01-16T07:34:24;0.83;;;0.83;;
7406;SDS011;3745;56.964;24.128;2024-01-16T07:36:51;0.00;;;0.00;;
7406;SDS011;3745;56.964;24.128;2024-01-16T07:39:16;0.20;;;0.20;;
7406;SDS011;3745;56.964;24.128;2024-01-16T07:41:42;0.00;;;0.00;;
7406;SDS011;3745;56.964;24.128;2024-01-16T07:44:07;0.87;;;0.30;;
7406;SDS011;3745;56.964;24.128;2024-01-16T07:46:34;0.80;;;0.80;;
7406;SDS011;3745;56.964;24.128;2024-01-16T07:49:00;2.67;;;0.80;;
7406;SDS011;3745;56.964;24.128;2024-01-16T07:51:25;0.20;;;0.20;;
7406;SDS011;3745;56.964;24.128;2024-01-16T07:54:04;2.80;;;2.13;;
7406;SDS011;3745;56.964;24.128;2024-01-16T07:56:34;0.00;;;0.00;;
7406;SDS011;3745;56.964;24.128;2024-01-16T07:59:01;3.87;;;2.53;;
7406;SDS011;3745;56.964;24.128;2024-01-16T08:01:27;5.60;;;2.03;;
7406;SDS011;3745;56.964;24.128;2024-01-16T08:03:56;3.17;;;3.00;;
7406;SDS011;3745;56.964;24.128;2024-01-16T08:06:22;0.80;;;0.77;;
7406;SDS011;3745;56.964;24.128;2024-01-16T08:08:48;2.93;;;2.73;;
7406;SDS011;3745;56.964;24.128;2024-01-16T08:11:15;0.10;;;0.10;;
7406;SDS011;3745;56.964;24.128;2024-01-16T08:13:42;0.63;;;0.63;;
7406;SDS011;3745;56.964;24.128;2024-01-16T08:16:07;0.00;;;0.00;;
7406;SDS011;3745;56.964;24.128;2024-01-16T08:18:33;0.17;;;0.17;;
7406;SDS011;3745;56.964;24.128;2024-01-16T08:20:59;0.97;;;0.93;;
7406;SDS011;3745;56.964;24.128;2024-01-16T08:23:25;1.17;;;0.77;;
7406;SDS011;3745;56.964;24.128;2024-01-16T08:25:51;0.00;;;0.00;;
7406;SDS011;3745;56.964;24.128;2024-01-16T08:28:20;1.97;;;1.27;;
7406;SDS011;3745;56.964;24.128;2024-01-16T08:30:45;0.00;;;0.00;;
7406;SDS011;3745;56.964;24.128;2024-01-16T08:33:11;0.00;;;0.00;;
7406;SDS011;3745;56.964;24.128;2024-01-16T08:35:37;3.53;;;3.40;;
7406;SDS011;3745;56.964;24.128;2024-01-16T08:38:04;0.63;;;0.45;;
7406;SDS011;3745;56.964;24.128;2024-01-16T08:40:30;2.00;;;1.20;;
7406;SDS011;3745;56.964;24.128;2024-01-16T08:42:56;0.00;;;0.00;;
7406;SDS011;3745;56.964;24.128;2024-01-16T08:45:22;1.07;;;0.83;;
7406;SDS011;3745;56.964;24.128;2024-01-16T08:47:47;1.43;;;1.23;;
7406;SDS011;3745;56.964;24.128;2024-01-16T08:50:14;0.03;;;0.03;;
7406;SDS011;3745;56.964;24.128;2024-01-16T08:52:41;0.00;;;0.00;;
7406;SDS011;3745;56.964;24.128;2024-01-16T08:55:07;4.00;;;2.83;;
7406;SDS011;3745;56.964;24.128;2024-01-16T08:57:36;1.23;;;0.63;;
7406;SDS011;3745;56.964;24.128;2024-01-16T09:00:05;1.03;;;0.47;;
7406;SDS011;3745;56.964;24.128;2024-01-16T09:02:31;0.00;;;0.00;;
7406;SDS011;3745;56.964;24.128;2024-01-16T09:04:57;0.00;;;0.00;;
7406;SDS011;3745;56.964;24.128;2024-01-16T09:07:27;0.20;;;0.20;;
7406;SDS011;3745;56.964;24.128;2024-01-16T09:09:52;0.20;;;0.10;;
7406;SDS011;3745;56.964;24.128;2024-01-16T09:12:18;4.83;;;4.63;;
7406;SDS011;3745;56.964;24.128;2024-01-16T09:14:44;5.90;;;1.60;;
7406;SDS011;3745;56.964;24.128;2024-01-16T09:17:10;1.90;;;1.20;;
7406;SDS011;3745;56.964;24.128;2024-01-16T09:19:36;0.00;;;0.00;;
7406;SDS011;3745;56.964;24.128;2024-01-16T09:22:01;0.20;;;0.20;;
7406;SDS011;3745;56.964;24.128;2024-01-16T09:24:28;0.10;;;0.10;;
7406;SDS011;3745;56.964;24.128;2024-01-16T09:26:54;0.10;;;0.10;;
7406;SDS011;3745;56.964;24.128;2024-01-16T09:29:20;0.20;;;0.20;;
7406;SDS011;3745;56.964;24.128;2024-01-16T09:31:47;2.60;;;0.73;;
7406;SDS011;3745;56.964;24.128;2024-01-16T09:34:13;0.00;;;0.00;;
7406;SDS011;3745;56.964;24.128;2024-01-16T09:36:39;0.10;;;0.10;;
7406;SDS011;3745;56.964;24.128;2024-01-16T09:39:07;0.10;;;0.10;;
7406;SDS011;3745;56.964;24.128;2024-01-16T09:41:39;1.17;;;0.60;;
7406;SDS011;3745;56.964;24.128;2024-01-16T09:44:07;1.00;;;0.43;;
7406;SDS011;3745;56.964;24.128;2024-01-16T09:46:34;0.00;;;0.00;;
7406;SDS011;3745;56.964;24.128;2024-01-16T09:49:02;0.00;;;0.00;;
7406;SDS011;3745;56.964;24.128;2024-01-16T09:51:29;0.33;;;0.33;;
7406;SDS011;3745;56.964;24.128;2024-01-16T09:53:54;0.00;;;0.00;;
7406;SDS011;3745;56.964;24.128;2024-01-16T09:56:21;1.33;;;1.33;;
7406;SDS011;3745;56.964;24.128;2024-01-16T09:58:50;0.00;;;0.00;;
7406;SDS011;3745;56.964;24.128;2024-01-16T10:01:22;0.10;;;0.10;;
7406;SDS011;3745;56.964;24.128;2024-01-16T10:03:50;0.10;;;0.10;;
7406;SDS011;3745;56.964;24.128;2024-01-16T10:06:16;0.57;;;0.57;;
7406;SDS011;3745;56.964;24.128;2024-01-16T10:08:46;0.30;;;0.30;;
7406;SDS011;3745;56.964;24.128;2024-01-16T10:11:12;0.00;;;0.00;;
7406;SDS011;3745;56.964;24.128;2024-01-16T10:13:38;0.00;;;0.00;;
7406;SDS011;3745;56.964;24.128;2024-01-16T10:16:04;0.20;;;0.20;;
7406;SDS011;3745;56.964;24.128;2024-01-16T10:18:31;0.00;;;0.00;;
7406;SDS011;3745;56.964;24.128;2024-01-16T10:20:58;0.33;;;0.30;;
7406;SDS011;3745;56.964;24.128;2024-01-16T10:23:27;1.20;;;0.27;;
7406;SDS011;3745;56.964;24.128;2024-01-16T10:26:12;0.60;;;0.60;;
7406;SDS011;3745;56.964;24.128;2024-01-16T10:28:39;0.07;;;0.07;;
7406;SDS011;3745;56.964;24.128;2024-01-16T10:31:07;0.83;;;0.83;;
7406;SDS011;3745;56.964;24.128;2024-01-16T10:33:34;0.00;;;0.00;;
7406;SDS011;3745;56.964;24.128;2024-01-16T10:36:15;1.23;;;1.23;;
7406;SDS011;3745;56.964;24.128;2024-01-16T10:38:43;2.93;;;1.43;;
7406;SDS011;3745;56.964;24.128;2024-01-16T10:41:10;0.00;;;0.00;;
7406;SDS011;3745;56.964;24.128;2024-01-16T10:43:39;0.27;;;0.27;;
7406;SDS011;3745;56.964;24.128;2024-01-16T10:46:14;0.10;;;0.10;;
7406;SDS011;3745;56.964;24.128;2024-01-16T10:48:44;0.07;;;0.07;;
7406;SDS011;3745;56.964;24.128;2024-01-16T10:51:23;0.13;;;0.13;;
7406;SDS011;3745;56.964;24.128;2024-01-16T10:53:51;0.00;;;0.00;;
7406;SDS011;3745;56.964;24.128;2024-01-16T10:56:24;0.10;;;0.10;;
7406;SDS011;3745;56.964;24.128;2024-01-16T10:58:56;0.00;;;0.00;;
7406;SDS011;3745;56.964;24.128;2024-01-16T11:01:43;0.00;;;0.00;;
7406;SDS011;3745;56.964;24.128;2024-01-16T11:04:16;0.20;;;0.20;;
7406;SDS011;3745;56.964;24.128;2024-01-16T11:06:43;0.00;;;0.00;;
7406;SDS011;3745;56.964;24.128;2024-01-16T11:09:09;0.00;;;0.00;;
7406;SDS011;3745;56.964;24.128;2024-01-16T11:11:40;0.00;;;0.00;;
7406;SDS011;3745;56.964;24.128;2024-01-16T11:14:10;0.00;;;0.00;;
7406;SDS011;3745;56.964;24.128;2024-01-16T11:16:41;0.00;;;0.00;;
7406;SDS011;3745;56.964;24.128;2024-01-16T11:19:08;0.10;;;0.10;;
7406;SDS011;3745;56.964;24.128;2024-01-16T11:21:38;0.60;;;0.60;;
7406;SDS011;3745;56.964;24.128;2024-01-16T11:24:06;0.43;;;0.43;;
7406;SDS011;3745;56.964;24.128;2024-01-16T11:26:32;0.20;;;0.20;;
7406;SDS011;3745;56.964;24.128;2024-01-16T11:31:52;0.00;;;0.00;;
7406;SDS011;3745;56.964;24.128;2024-01-16T11:37:12;3.30;;;2.43;;
7406;SDS011;3745;56.964;24.128;2024-01-16T11:39:38;0.00;;;0.00;;
7406;SDS011;3745;56.964;24.128;2024-01-16T11:42:05;0.00;;;0.00;;
7406;SDS011;3745;56.964;24.128;2024-01-16T11:44:40;0.10;;;0.10;;
7406;SDS011;3745;56.964;24.128;2024-01-16T11:47:08;0.20;;;0.20;;
7406;SDS011;3745;56.964;24.128;2024-01-16T11:49:37;0.00;;;0.00;;
7406;SDS011;3745;56.964;24.128;2024-01-16T11:52:04;0.17;;;0.17;;
7406;SDS011;3745;56.964;24.128;2024-01-16T11:54:32;0.37;;;0.30;;
7406;SDS011;3745;56.964;24.128;2024-01-16T12:02:51;0.00;;;0.00;;
7406;SDS011;3745;56.964;24.128;2024-01-16T12:05:28;0.10;;;0.10;;
7406;SDS011;3745;56.964;24.128;2024-01-16T12:07:54;0.10;;;0.10;;
7406;SDS011;3745;56.964;24.128;2024-01-16T12:10:20;0.10;;;0.10;;
7406;SDS011;3745;56.964;24.128;2024-01-16T12:12:48;0.20;;;0.20;;
7406;SDS011;3745;56.964;24.128;2024-01-16T12:15:15;15.03;;;4.40;;
7406;SDS011;3745;56.964;24.128;2024-01-16T12:17:53;0.00;;;0.00;;
7406;SDS011;3745;56.964;24.128;2024-01-16T12:20:26;0.00;;;0.00;;
7406;SDS011;3745;56.964;24.128;2024-01-16T12:25:31;1.00;;;0.23;;
7406;SDS011;3745;56.964;24.128;2024-01-16T12:28:01;0.17;;;0.10;;
7406;SDS011;3745;56.964;24.128;2024-01-16T12:30:35;0.20;;;0.20;;
7406;SDS011;3745;56.964;24.128;2024-01-16T12:33:12;1.00;;;0.43;;
7406;SDS011;3745;56.964;24.128;2024-01-16T12:35:39;0.47;;;0.47;;
7406;SDS011;3745;56.964;24.128;2024-01-16T12:38:06;0.00;;;0.00;;
7406;SDS011;3745;56.964;24.128;2024-01-16T12:40:36;0.00;;;0.00;;
7406;SDS011;3745;56.964;24.128;2024-01-16T12:43:07;0.00;;;0.00;;
7406;SDS011;3745;56.964;24.128;2024-01-16T12:45:37;0.00;;;0.00;;
7406;SDS011;3745;56.964;24.128;2024-01-16T12:48:03;0.00;;;0.00;;
7406;SDS011;3745;56.964;24.128;2024-01-16T12:50:29;1.00;;;0.97;;
7406;SDS011;3745;56.964;24.128;2024-01-16T12:55:30;0.27;;;0.23;;
7406;SDS011;3745;56.964;24.128;2024-01-16T13:00:48;2.37;;;2.17;;
7406;SDS011;3745;56.964;24.128;2024-01-16T13:03:15;2.53;;;2.40;;
7406;SDS011;3745;56.964;24.128;2024-01-16T13:05:42;0.00;;;0.00;;
7406;SDS011;3745;56.964;24.128;2024-01-16T13:08:08;1.10;;;1.00;;
7406;SDS011;3745;56.964;24.128;2024-01-16T13:10:34;0.00;;;0.00;;
7406;SDS011;3745;56.964;24.128;2024-01-16T13:13:16;0.20;;;0.20;;
7406;SDS011;3745;56.964;24.128;2024-01-16T13:15:46;0.03;;;0.03;;
7406;SDS011;3745;56.964;24.128;2024-01-16T13:18:22;0.00;;;0.00;;
7406;SDS011;3745;56.964;24.128;2024-01-16T13:20:50;1.43;;;0.77;;
7406;SDS011;3745;56.964;24.128;2024-01-16T13:23:16;0.20;;;0.20;;
7406;SDS011;3745;56.964;24.128;2024-01-16T13:25:42;0.50;;;0.50;;
7406;SDS011;3745;56.964;24.128;2024-01-16T13:28:12;0.00;;;0.00;;
7406;SDS011;3745;56.964;24.128;2024-01-16T13:30:39;0.10;;;0.10;;
7406;SDS011;3745;56.964;24.128;2024-01-16T13:33:07;0.00;;;0.00;;
7406;SDS011;3745;56.964;24.128;2024-01-16T13:35:40;1.30;;;1.07;;
7406;SDS011;3745;56.964;24.128;2024-01-16T13:38:07;0.30;;;0.30;;
7406;SDS011;3745;56.964;24.128;2024-01-16T13:40:34;0.30;;;0.30;;
7406;SDS011;3745;56.964;24.128;2024-01-16T13:43:00;0.00;;;0.00;;
7406;SDS011;3745;56.964;24.128;2024-01-16T13:45:26;1.47;;;0.87;;
7406;SDS011;3745;56.964;24.128;2024-01-16T13:47:53;0.90;;;0.47;;
7406;SDS011;3745;56.964;24.128;2024-01-16T13:50:22;0.00;;;0.00;;
7406;SDS011;3745;56.964;24.128;2024-01-16T13:52:48;0.93;;;0.93;;
7406;SDS011;3745;56.964;24.128;2024-01-16T13:55:14;5.27;;;1.07;;
7406;SDS011;3745;56.964;24.128;2024-01-16T13:57:39;0.00;;;0.00;;
7406;SDS011;3745;56.964;24.128;2024-01-16T14:00:10;5.33;;;2.07;;
7406;SDS011;3745;56.964;24.128;2024-01-16T14:02:42;1.73;;;0.93;;
7406;SDS011;3745;56.964;24.128;2024-01-16T14:05:09;0.53;;;0.47;;
7406;SDS011;3745;56.964;24.128;2024-01-16T14:07:40;0.00;;;0.00;;
7406;SDS011;3745;56.964;24.128;2024-01-16T14:10:10;0.00;;;0.00;;
7406;SDS011;3745;56.964;24.128;2024-01-16T14:12:37;0.10;;;0.10;;
7406;SDS011;3745;56.964;24.128;2024-01-16T14:15:03;0.53;;;0.20;;
7406;SDS011;3745;56.964;24.128;2024-01-16T14:17:34;0.00;;;0.00;;
7406;SDS011;3745;56.964;24.128;2024-01-16T14:20:00;0.53;;;0.53;;
7406;SDS011;3745;56.964;24.128;2024-01-16T14:22:26;0.00;;;0.00;;
7406;SDS011;3745;56.964;24.128;2024-01-16T14:24:52;0.17;;;0.17;;
7406;SDS011;3745;56.964;24.128;2024-01-16T14:27:18;0.30;;;0.30;;
7406;SDS011;3745;56.964;24.128;2024-01-16T14:29:52;0.00;;;0.00;;
7406;SDS011;3745;56.964;24.128;2024-01-16T14:32:19;0.47;;;0.47;;
7406;SDS011;3745;56.964;24.128;2024-01-16T14:34:44;2.00;;;0.97;;
7406;SDS011;3745;56.964;24.128;2024-01-16T14:37:10;0.00;;;0.00;;
7406;SDS011;3745;56.964;24.128;2024-01-16T14:39:36;0.00;;;0.00;;
7406;SDS011;3745;56.964;24.128;2024-01-16T14:42:02;0.17;;;0.17;;
7406;SDS011;3745;56.964;24.128;2024-01-16T14:44:28;0.00;;;0.00;;
7406;SDS011;3745;56.964;24.128;2024-01-16T14:46:54;0.23;;;0.23;;
7406;SDS011;3745;56.964;24.128;2024-01-16T14:49:19;0.00;;;0.00;;
7406;SDS011;3745;56.964;24.128;2024-01-16T14:51:46;0.00;;;0.00;;
7406;SDS011;3745;56.964;24.128;2024-01-16T14:54:11;1.30;;;0.40;;
7406;SDS011;3745;56.964;24.128;2024-01-16T14:56:37;0.00;;;0.00;;
7406;SDS011;3745;56.964;24.128;2024-01-16T14:59:03;0.00;;;0.00;;
7406;SDS011;3745;56.964;24.128;2024-01-16T15:01:29;1.43;;;1.43;;
7406;SDS011;3745;56.964;24.128;2024-01-16T15:03:55;0.20;;;0.20;;
7406;SDS011;3745;56.964;24.128;2024-01-16T15:06:22;0.87;;;0.87;;
7406;SDS011;3745;56.964;24.128;2024-01-16T15:08:50;1.50;;;1.40;;
7406;SDS011;3745;56.964;24.128;2024-01-16T15:11:16;0.10;;;0.10;;
7406;SDS011;3745;56.964;24.128;2024-01-16T15:13:42;0.00;;;0.00;;
7406;SDS011;3745;56.964;24.128;2024-01-16T15:16:08;0.30;;;0.13;;
7406;SDS011;3745;56.964;24.128;2024-01-16T15:18:33;1.47;;;0.70;;